createdAt,value
2023-05-02T00:05:38.397Z,9.27
2023-05-02T00:10:34.855Z,9.33
2023-05-02T00:15:31.332Z,9.27
2023-05-02T00:20:27.907Z,9.33
2023-05-02T00:25:24.499Z,9.39
2023-05-02T00:31:35.383Z,9.45
2023-05-02T00:36:31.603Z,9.45
2023-05-02T00:41:28.190Z,9.39
2023-05-02T00:47:38.898Z,9.39
2023-05-02T00:52:35.421Z,9.27
2023-05-02T00:57:31.959Z,9.27
2023-05-02T01:02:28.542Z,9.21
2023-05-02T01:08:39.096Z,9.27
2023-05-02T01:13:35.620Z,9.27
2023-05-02T01:18:32.192Z,9.27
2023-05-02T01:23:28.690Z,9.15
2023-05-02T01:29:39.358Z,9.15
2023-05-02T01:34:35.889Z,9.15
2023-05-02T01:39:32.413Z,9.15
2023-05-02T01:44:29.003Z,9.15
2023-05-02T01:50:39.675Z,9.15
2023-05-02T01:55:36.263Z,9.1
2023-05-02T02:00:32.717Z,8.98
2023-05-02T02:05:29.224Z,9.04
2023-05-02T02:10:25.788Z,8.98
2023-05-02T02:16:36.550Z,8.98
2023-05-02T02:21:32.953Z,8.87
2023-05-02T02:31:26.229Z,8.92
2023-05-02T02:37:36.700Z,8.92
2023-05-02T02:42:33.226Z,8.98
2023-05-02T02:47:29.840Z,8.98
2023-05-02T02:52:26.304Z,8.98
2023-05-02T02:58:36.948Z,8.98
2023-05-02T03:03:33.546Z,8.98
2023-05-02T03:08:30.010Z,8.98
2023-05-02T03:19:37.286Z,8.98
2023-05-02T03:24:33.743Z,8.98
2023-05-02T03:29:30.241Z,8.92
2023-05-02T03:34:26.831Z,8.92
2023-05-02T03:40:37.523Z,8.92
2023-05-02T03:45:34.023Z,8.92
2023-05-02T03:50:30.519Z,8.92
2023-05-02T03:55:27.086Z,8.92
2023-05-02T04:01:37.820Z,8.92
2023-05-02T04:06:34.331Z,8.98
2023-05-02T04:11:30.794Z,8.98
2023-05-02T04:16:27.493Z,8.98
2023-05-02T04:22:38.003Z,8.98
2023-05-02T04:27:34.555Z,8.98
2023-05-02T04:32:31.074Z,9.04
2023-05-02T04:43:38.267Z,9.04
2023-05-02T04:48:34.885Z,9.04
2023-05-02T04:53:31.310Z,9.04
2023-05-02T04:58:27.972Z,9.04
2023-05-02T05:04:38.511Z,9.04
2023-05-02T05:09:35.054Z,9.04
2023-05-02T05:14:31.548Z,9.04
2023-05-02T05:19:28.204Z,9.1
2023-05-02T05:24:32.849Z,9.1
2023-05-02T05:29:29.420Z,9.21
2023-05-02T05:34:25.927Z,9.21
2023-05-02T05:40:36.703Z,9.27
2023-05-02T05:45:33.142Z,9.27
2023-05-02T05:50:29.696Z,9.33
2023-05-02T05:55:26.157Z,9.45
2023-05-02T06:01:36.948Z,9.39
2023-05-02T06:06:33.435Z,9.39
2023-05-02T06:11:30.016Z,9.33
2023-05-02T06:16:26.600Z,9.45
2023-05-02T06:22:37.136Z,9.45
2023-05-02T06:27:33.823Z,9.51
2023-05-02T06:32:30.259Z,9.39
2023-05-02T06:37:26.711Z,9.33
2023-05-02T06:43:37.383Z,9.57
2023-05-02T06:48:33.912Z,9.82
2023-05-02T06:53:32.340Z,9.76
2023-05-02T06:58:27.031Z,9.63
2023-05-02T07:04:37.702Z,9.63
2023-05-02T07:09:34.163Z,9.69
2023-05-02T07:14:30.664Z,9.63
2023-05-02T07:19:27.271Z,9.69
2023-05-02T07:25:37.890Z,9.63
2023-05-02T07:30:34.523Z,9.69
2023-05-02T07:35:30.914Z,9.76
2023-05-02T07:40:27.482Z,9.69
2023-05-02T07:46:38.350Z,9.45
2023-05-02T07:51:34.691Z,9.39
2023-05-02T07:56:31.212Z,9.39
2023-05-02T08:01:27.881Z,9.45
2023-05-02T08:07:38.445Z,9.57
2023-05-02T08:12:34.980Z,9.82
2023-05-02T08:17:31.473Z,9.94
2023-05-02T08:22:28.053Z,10.07
2023-05-02T08:28:38.766Z,10
2023-05-02T08:33:35.216Z,10
2023-05-02T08:38:32.090Z,10.2
2023-05-02T08:43:28.341Z,10.39
2023-05-02T08:49:38.935Z,10.39
2023-05-02T08:54:35.461Z,10.32
2023-05-02T08:59:32.007Z,10.13
2023-05-02T09:04:28.625Z,10.13
2023-05-02T09:10:39.226Z,10.13
2023-05-02T09:15:35.813Z,10.32
2023-05-02T09:20:32.269Z,10.52
2023-05-02T09:25:28.899Z,10.59
2023-05-02T09:36:36.048Z,10.99
2023-05-02T09:41:32.548Z,10.65
2023-05-02T09:46:29.183Z,10.46
2023-05-02T09:52:39.704Z,10.32
2023-05-02T09:57:36.269Z,10.26
2023-05-02T10:02:33.017Z,10.26
2023-05-02T10:07:29.323Z,10.32
2023-05-02T10:12:25.934Z,10.26
2023-05-02T10:18:36.606Z,9.94
2023-05-02T10:23:33.064Z,9.57
2023-05-02T10:28:29.567Z,9.76
2023-05-02T10:33:26.367Z,9.94
2023-05-02T10:39:37.095Z,9.94
2023-05-02T10:49:29.888Z,10.13
2023-05-02T10:54:26.393Z,10.2
2023-05-02T11:00:37.303Z,10.65
2023-05-02T11:05:33.589Z,11.2
2023-05-02T11:10:30.189Z,11.13
2023-05-02T11:15:26.767Z,11.34
2023-05-02T11:21:37.371Z,11.2
2023-05-02T11:26:33.874Z,11.55
2023-05-02T11:31:30.407Z,11.93
2023-05-02T11:36:26.968Z,11.27
2023-05-02T11:42:37.543Z,11.27
2023-05-02T11:47:34.143Z,10.33
2023-05-02T11:52:30.610Z,10.59
2023-05-02T11:57:27.208Z,10.22
2023-05-02T12:03:37.981Z,10.72
2023-05-02T12:08:34.439Z,11.17
2023-05-02T12:13:30.864Z,10.42
2023-05-02T12:18:27.460Z,11.5
2023-05-02T12:24:38.166Z,10.69
2023-05-02T12:29:34.709Z,11
2023-05-02T12:34:31.111Z,11.08
2023-05-02T12:39:27.784Z,11.36
2023-05-02T12:45:38.383Z,10.4
2023-05-02T12:50:34.951Z,10.44
2023-05-02T12:55:31.413Z,9.5
2023-05-02T13:00:28.039Z,10.24
2023-05-02T13:06:38.657Z,9.84
2023-05-02T13:11:35.157Z,8.66
2023-05-02T13:16:31.768Z,8.58
2023-05-02T13:21:28.207Z,9.03
2023-05-02T13:27:38.944Z,9.22
2023-05-02T13:32:35.474Z,9.22
2023-05-02T13:37:31.932Z,9.05
2023-05-02T13:42:28.499Z,9.55
2023-05-02T13:48:39.194Z,9.32
2023-05-02T13:53:35.752Z,8.83
2023-05-02T13:58:32.207Z,8.33
2023-05-02T14:03:28.826Z,8.27
2023-05-02T14:09:39.454Z,7.41
2023-05-02T14:14:36.018Z,7.3
2023-05-02T14:19:32.476Z,7.3
2023-05-02T14:24:29.096Z,7.36
2023-05-02T14:30:39.681Z,7.37
2023-05-02T14:35:36.236Z,7.07
2023-05-02T14:40:32.755Z,6.98
2023-05-02T14:45:29.344Z,6.92
2023-05-02T14:50:25.881Z,6.98
2023-05-02T14:56:36.440Z,7.6
2023-05-02T15:01:33.101Z,7.64
2023-05-02T15:06:29.573Z,7.37
2023-05-02T15:11:26.031Z,7.41
2023-05-02T15:17:36.757Z,7.22
2023-05-02T15:27:29.809Z,6.85
2023-05-02T15:32:26.348Z,7.13
2023-05-02T15:38:37.042Z,6.41
2023-05-02T15:43:33.535Z,6.69
2023-05-02T15:48:30.137Z,6.19
2023-05-02T15:59:37.305Z,6.74
2023-05-02T16:04:33.872Z,6.43
2023-05-02T16:09:30.297Z,6.08
2023-05-02T16:14:26.874Z,6.08
2023-05-02T16:20:37.601Z,6.63
2023-05-02T16:25:34.091Z,6.39
2023-05-02T16:30:30.559Z,6.7
2023-05-02T16:35:27.149Z,6.64
2023-05-02T16:41:37.843Z,6.46
2023-05-02T16:46:34.417Z,6.3
2023-05-02T16:51:30.830Z,6.6
2023-05-02T16:56:27.464Z,6.53
2023-05-02T17:02:38.157Z,6.35
2023-05-02T17:07:34.660Z,6.13
2023-05-02T17:12:31.166Z,6.37
2023-05-02T17:17:27.663Z,6.49
2023-05-02T17:23:38.348Z,6.3
2023-05-02T17:28:34.870Z,6.25
2023-05-02T17:33:31.388Z,5.9
2023-05-02T17:38:27.925Z,6.07
2023-05-02T17:44:38.763Z,5.87
2023-05-02T17:48:29.310Z,6
2023-05-02T17:53:25.722Z,5.97
2023-05-02T17:59:36.461Z,5.92
2023-05-02T18:04:32.908Z,5.97
2023-05-02T18:09:29.525Z,5.9
2023-05-02T18:14:26.069Z,5.8
2023-05-02T18:20:36.751Z,5.93
2023-05-02T18:25:33.192Z,6.07
2023-05-02T18:30:29.775Z,5.81
2023-05-02T18:35:26.301Z,5.52
2023-05-02T18:41:36.911Z,5.55
2023-05-02T18:46:33.495Z,5.49
2023-05-02T18:51:30.008Z,5.65
2023-05-02T18:56:26.537Z,6.12
2023-05-02T19:02:37.356Z,6.09
2023-05-02T19:07:35.080Z,6.51
2023-05-02T19:12:30.232Z,6.48
2023-05-02T19:17:26.990Z,6.55
2023-05-02T19:23:37.486Z,6.85
2023-05-02T19:28:34.019Z,7.16
2023-05-02T19:33:30.514Z,6.85
2023-05-02T19:38:27.116Z,6.77
2023-05-02T19:44:37.686Z,6.7
2023-05-02T19:49:34.249Z,7.18
2023-05-02T19:54:30.768Z,7.32
2023-05-02T19:59:27.347Z,7.51
2023-05-02T20:05:38.045Z,7.79
2023-05-02T20:10:34.588Z,7.71
2023-05-02T20:15:31.000Z,7.76
2023-05-02T20:26:38.228Z,7.64
2023-05-02T20:31:34.894Z,7.88
2023-05-02T20:36:31.258Z,7.91
2023-05-02T20:41:27.841Z,8.07
2023-05-02T20:47:38.551Z,8.05
2023-05-02T20:52:35.038Z,8.08
2023-05-02T20:57:31.680Z,8.05
2023-05-02T21:02:28.213Z,8.1
2023-05-02T21:08:38.772Z,8.05
2023-05-02T21:13:35.317Z,8
2023-05-02T21:18:31.828Z,8
2023-05-02T21:23:28.389Z,8
2023-05-02T21:29:39.108Z,8
2023-05-02T21:34:35.637Z,8
2023-05-02T21:39:32.077Z,8
2023-05-02T21:44:28.628Z,7.95
2023-05-02T21:50:40.292Z,8.05
2023-05-02T21:55:35.823Z,7.95
2023-05-02T22:00:32.379Z,7.84
2023-05-02T22:11:39.566Z,7.84
2023-05-02T22:16:36.125Z,7.95
2023-05-02T22:21:32.631Z,7.74
2023-05-02T22:26:29.136Z,7.69
2023-05-02T22:32:39.855Z,7.54
2023-05-02T22:37:36.381Z,7.54
2023-05-02T22:42:32.956Z,7.54
2023-05-02T22:47:29.484Z,7.54
2023-05-02T22:52:26.046Z,7.4
2023-05-02T22:58:36.604Z,7.3
2023-05-02T23:03:33.272Z,7.3
2023-05-02T23:08:29.740Z,7.4
2023-05-02T23:14:40.323Z,7.4
2023-05-02T23:19:37.016Z,7.25
2023-05-02T23:24:33.388Z,7.3
2023-05-02T23:29:29.980Z,7.2
2023-05-02T23:34:26.459Z,7.16
2023-05-02T23:40:37.117Z,7.2
2023-05-02T23:45:33.671Z,7.11
2023-05-02T23:50:30.169Z,7.2
2023-05-02T23:55:26.776Z,7.25
